Terminal Aerodrome Forecast
Issued by NWS

Home | Current Version | Previous Version | Text Only | Print | Product List | Glossary On
Versions: 1 2 3 4 5 6 7 8 9 10 11 12 13 14
026
FTUS43 KAPX 210535
TAFTVC
TAF
KTVC 210535Z 2106/2206 VRB03KT P6SM VCTS BKN080CB WS006/17025KT
     FM210700 VRB03KT P6SM VCTS BKN070CB
     FM211000 VRB03KT P6SM BKN050
     FM211300 VRB03KT 4SM BR BKN030
     FM211600 18004KT P6SM BKN060
     FM212000 22005KT P6SM SCT080=

USA.gov is the U.S. government's official web portal to all federal, state and local government web resources and services.